sensor_id;sensor_type;location;lat;lon;timestamp;pressure;altitude;pressure_sealevel;temperature;humidity
13867;BME280;7003;46.982;15.248;2023-04-30T00:00:37;97193.41;;;9.54;100.00
13867;BME280;7003;46.982;15.248;2023-04-30T00:03:04;97189.50;;;9.60;100.00
13867;BME280;7003;46.982;15.248;2023-04-30T00:05:34;97197.03;;;9.49;100.00
13867;BME280;7003;46.982;15.248;2023-04-30T00:08:04;97194.03;;;9.59;100.00
13867;BME280;7003;46.982;15.248;2023-04-30T00:10:32;97197.59;;;9.72;100.00
13867;BME280;7003;46.982;15.248;2023-04-30T00:12:59;97202.44;;;9.70;100.00
13867;BME280;7003;46.982;15.248;2023-04-30T00:15:28;97199.47;;;9.72;100.00
13867;BME280;7003;46.982;15.248;2023-04-30T00:17:55;97194.47;;;9.70;100.00
13867;BME280;7003;46.982;15.248;2023-04-30T00:20:23;97206.81;;;9.75;100.00
13867;BME280;7003;46.982;15.248;2023-04-30T00:22:50;97203.47;;;9.86;100.00
13867;BME280;7003;46.982;15.248;2023-04-30T00:25:18;97203.69;;;9.73;100.00
13867;BME280;7003;46.982;15.248;2023-04-30T00:27:49;97196.25;;;9.49;100.00
13867;BME280;7003;46.982;15.248;2023-04-30T00:30:19;97199.81;;;9.53;100.00
13867;BME280;7003;46.982;15.248;2023-04-30T00:32:46;97195.16;;;9.41;100.00
13867;BME280;7003;46.982;15.248;2023-04-30T00:35:16;97195.78;;;9.47;100.00
13867;BME280;7003;46.982;15.248;2023-04-30T00:37:45;97200.31;;;9.46;100.00
13867;BME280;7003;46.982;15.248;2023-04-30T00:40:13;97202.50;;;9.44;100.00
13867;BME280;7003;46.982;15.248;2023-04-30T00:42:41;97205.91;;;9.53;100.00
13867;BME280;7003;46.982;15.248;2023-04-30T00:45:09;97207.00;;;9.52;100.00
13867;BME280;7003;46.982;15.248;2023-04-30T00:47:36;97203.59;;;9.52;100.00
13867;BME280;7003;46.982;15.248;2023-04-30T00:50:06;97203.59;;;9.52;100.00
13867;BME280;7003;46.982;15.248;2023-04-30T00:52:37;97191.38;;;9.59;100.00
13867;BME280;7003;46.982;15.248;2023-04-30T00:55:06;97196.03;;;9.62;100.00
13867;BME280;7003;46.982;15.248;2023-04-30T00:57:34;97209.31;;;9.62;100.00
13867;BME280;7003;46.982;15.248;2023-04-30T01:00:06;97205.09;;;9.61;100.00
13867;BME280;7003;46.982;15.248;2023-04-30T01:02:38;97212.28;;;9.61;100.00
13867;BME280;7003;46.982;15.248;2023-04-30T01:05:08;97207.75;;;9.61;100.00
13867;BME280;7003;46.982;15.248;2023-04-30T01:07:48;97207.94;;;9.56;100.00
13867;BME280;7003;46.982;15.248;2023-04-30T01:10:19;97207.34;;;9.51;100.00
13867;BME280;7003;46.982;15.248;2023-04-30T01:12:53;97200.78;;;9.31;100.00
13867;BME280;7003;46.982;15.248;2023-04-30T01:15:27;97210.91;;;9.46;100.00
13867;BME280;7003;46.982;15.248;2023-04-30T01:17:56;97208.78;;;9.14;100.00
13867;BME280;7003;46.982;15.248;2023-04-30T01:20:27;97200.38;;;9.03;100.00
13867;BME280;7003;46.982;15.248;2023-04-30T01:23:07;97201.47;;;8.94;100.00
13867;BME280;7003;46.982;15.248;2023-04-30T01:25:52;97200.06;;;8.96;100.00
13867;BME280;7003;46.982;15.248;2023-04-30T01:28:22;97203.81;;;9.04;100.00
13867;BME280;7003;46.982;15.248;2023-04-30T01:30:53;97204.09;;;9.11;100.00
13867;BME280;7003;46.982;15.248;2023-04-30T01:33:21;97205.97;;;9.02;100.00
13867;BME280;7003;46.982;15.248;2023-04-30T01:36:28;97204.09;;;8.94;100.00
13867;BME280;7003;46.982;15.248;2023-04-30T01:39:25;97208.81;;;8.97;100.00
13867;BME280;7003;46.982;15.248;2023-04-30T01:42:05;97207.25;;;9.04;100.00
13867;BME280;7003;46.982;15.248;2023-04-30T01:44:45;97205.06;;;8.98;100.00
13867;BME280;7003;46.982;15.248;2023-04-30T01:47:21;97207.84;;;8.93;100.00
13867;BME280;7003;46.982;15.248;2023-04-30T01:49:59;97212.84;;;8.94;100.00
13867;BME280;7003;46.982;15.248;2023-04-30T01:52:32;97215.97;;;9.05;100.00
13867;BME280;7003;46.982;15.248;2023-04-30T01:55:07;97221.91;;;9.02;100.00
13867;BME280;7003;46.982;15.248;2023-04-30T01:57:40;97223.94;;;8.96;100.00
13867;BME280;7003;46.982;15.248;2023-04-30T02:00:12;97226.28;;;8.98;100.00
13867;BME280;7003;46.982;15.248;2023-04-30T02:02:45;97229.84;;;9.02;100.00
13867;BME280;7003;46.982;15.248;2023-04-30T02:05:12;97225.97;;;8.82;100.00
13867;BME280;7003;46.982;15.248;2023-04-30T02:07:40;97222.53;;;8.81;100.00
13867;BME280;7003;46.982;15.248;2023-04-30T02:10:09;97218.16;;;8.85;100.00
13867;BME280;7003;46.982;15.248;2023-04-30T02:12:41;97218.78;;;8.82;100.00
13867;BME280;7003;46.982;15.248;2023-04-30T02:15:08;97222.50;;;8.99;100.00
13867;BME280;7003;46.982;15.248;2023-04-30T02:17:38;97224.69;;;8.79;100.00
13867;BME280;7003;46.982;15.248;2023-04-30T02:20:09;97221.44;;;8.82;100.00
13867;BME280;7003;46.982;15.248;2023-04-30T02:22:37;97231.09;;;8.87;100.00
13867;BME280;7003;46.982;15.248;2023-04-30T02:25:05;97230.63;;;8.76;100.00
13867;BME280;7003;46.982;15.248;2023-04-30T02:27:32;97233.28;;;8.76;100.00
13867;BME280;7003;46.982;15.248;2023-04-30T02:30:00;97234.97;;;8.64;100.00
13867;BME280;7003;46.982;15.248;2023-04-30T02:32:29;97236.34;;;8.53;100.00
13867;BME280;7003;46.982;15.248;2023-04-30T02:35:00;97238.38;;;8.56;100.00
13867;BME280;7003;46.982;15.248;2023-04-30T02:37:30;97233.88;;;8.56;100.00
13867;BME280;7003;46.982;15.248;2023-04-30T02:39:59;97237.13;;;8.53;100.00
13867;BME280;7003;46.982;15.248;2023-04-30T02:42:26;97234.63;;;8.48;100.00
13867;BME280;7003;46.982;15.248;2023-04-30T02:44:53;97242.13;;;8.55;100.00
13867;BME280;7003;46.982;15.248;2023-04-30T02:47:20;97238.88;;;8.58;100.00
13867;BME280;7003;46.982;15.248;2023-04-30T02:49:47;97244.78;;;8.55;100.00
13867;BME280;7003;46.982;15.248;2023-04-30T02:52:15;97248.38;;;8.50;100.00
13867;BME280;7003;46.982;15.248;2023-04-30T02:54:45;97252.09;;;8.49;100.00
13867;BME280;7003;46.982;15.248;2023-04-30T02:57:12;97245.50;;;8.38;100.00
13867;BME280;7003;46.982;15.248;2023-04-30T02:59:42;97249.34;;;8.23;100.00
13867;BME280;7003;46.982;15.248;2023-04-30T03:02:10;97243.19;;;8.45;100.00
13867;BME280;7003;46.982;15.248;2023-04-30T03:04:38;97251.69;;;8.25;100.00
13867;BME280;7003;46.982;15.248;2023-04-30T03:07:05;97249.81;;;8.25;100.00
13867;BME280;7003;46.982;15.248;2023-04-30T03:09:34;97256.38;;;8.28;100.00
13867;BME280;7003;46.982;15.248;2023-04-30T03:12:03;97260.38;;;8.17;100.00
13867;BME280;7003;46.982;15.248;2023-04-30T03:14:31;97247.13;;;8.17;100.00
13867;BME280;7003;46.982;15.248;2023-04-30T03:16:58;97250.28;;;8.19;100.00
13867;BME280;7003;46.982;15.248;2023-04-30T03:19:27;97254.31;;;8.16;100.00
13867;BME280;7003;46.982;15.248;2023-04-30T03:21:55;97270.50;;;8.15;100.00
13867;BME280;7003;46.982;15.248;2023-04-30T03:24:24;97267.78;;;7.97;100.00
13867;BME280;7003;46.982;15.248;2023-04-30T03:26:55;97268.63;;;7.84;100.00
13867;BME280;7003;46.982;15.248;2023-04-30T03:29:22;97267.59;;;7.63;100.00
13867;BME280;7003;46.982;15.248;2023-04-30T03:31:50;97267.59;;;7.94;100.00
13867;BME280;7003;46.982;15.248;2023-04-30T03:34:20;97269.19;;;7.95;100.00
13867;BME280;7003;46.982;15.248;2023-04-30T03:36:47;97271.13;;;7.81;100.00
13867;BME280;7003;46.982;15.248;2023-04-30T03:39:15;97274.25;;;7.83;100.00
13867;BME280;7003;46.982;15.248;2023-04-30T03:41:42;97274.84;;;8.10;100.00
13867;BME280;7003;46.982;15.248;2023-04-30T03:44:12;97277.28;;;7.98;100.00
13867;BME280;7003;46.982;15.248;2023-04-30T03:46:41;97280.84;;;7.94;100.00
13867;BME280;7003;46.982;15.248;2023-04-30T03:49:10;97285.38;;;7.93;100.00
13867;BME280;7003;46.982;15.248;2023-04-30T03:51:39;97284.09;;;7.91;100.00
13867;BME280;7003;46.982;15.248;2023-04-30T03:54:08;97283.59;;;7.80;100.00
13867;BME280;7003;46.982;15.248;2023-04-30T03:56:36;97286.22;;;7.80;100.00
13867;BME280;7003;46.982;15.248;2023-04-30T03:59:08;97287.06;;;7.89;100.00
13867;BME280;7003;46.982;15.248;2023-04-30T04:01:37;97300.00;;;7.91;100.00
13867;BME280;7003;46.982;15.248;2023-04-30T04:04:06;97294.97;;;7.81;100.00
13867;BME280;7003;46.982;15.248;2023-04-30T04:06:35;97299.94;;;7.82;100.00
13867;BME280;7003;46.982;15.248;2023-04-30T04:09:04;97299.09;;;7.95;100.00
13867;BME280;7003;46.982;15.248;2023-04-30T04:11:33;97295.88;;;8.07;100.00
13867;BME280;7003;46.982;15.248;2023-04-30T04:14:01;97297.13;;;8.09;100.00
13867;BME280;7003;46.982;15.248;2023-04-30T04:16:33;97297.66;;;7.89;100.00
13867;BME280;7003;46.982;15.248;2023-04-30T04:19:03;97300.41;;;7.84;100.00
13867;BME280;7003;46.982;15.248;2023-04-30T04:21:32;97303.06;;;7.84;100.00
13867;BME280;7003;46.982;15.248;2023-04-30T04:24:00;97310.28;;;7.92;100.00
13867;BME280;7003;46.982;15.248;2023-04-30T04:26:36;97318.56;;;7.99;100.00
13867;BME280;7003;46.982;15.248;2023-04-30T04:29:04;97312.16;;;7.92;100.00
13867;BME280;7003;46.982;15.248;2023-04-30T04:31:34;97315.59;;;7.92;100.00
13867;BME280;7003;46.982;15.248;2023-04-30T04:34:05;97321.06;;;7.96;100.00
13867;BME280;7003;46.982;15.248;2023-04-30T04:36:37;97326.97;;;7.93;100.00
13867;BME280;7003;46.982;15.248;2023-04-30T04:39:08;97331.59;;;7.87;100.00
13867;BME280;7003;46.982;15.248;2023-04-30T04:41:37;97332.81;;;7.81;100.00
13867;BME280;7003;46.982;15.248;2023-04-30T04:44:05;97344.34;;;7.85;100.00
13867;BME280;7003;46.982;15.248;2023-04-30T04:46:37;97333.97;;;7.89;100.00
13867;BME280;7003;46.982;15.248;2023-04-30T04:49:12;97322.19;;;8.03;100.00
13867;BME280;7003;46.982;15.248;2023-04-30T04:51:43;97339.03;;;8.07;100.00
13867;BME280;7003;46.982;15.248;2023-04-30T04:54:11;97342.38;;;8.22;100.00
13867;BME280;7003;46.982;15.248;2023-04-30T04:56:39;97343.50;;;8.29;100.00
13867;BME280;7003;46.982;15.248;2023-04-30T04:59:07;97350.09;;;8.32;100.00
13867;BME280;7003;46.982;15.248;2023-04-30T05:01:36;97357.28;;;8.31;100.00
13867;BME280;7003;46.982;15.248;2023-04-30T05:04:04;97356.59;;;8.26;100.00
13867;BME280;7003;46.982;15.248;2023-04-30T05:06:39;97349.81;;;8.33;100.00
13867;BME280;7003;46.982;15.248;2023-04-30T05:09:10;97342.06;;;8.45;100.00
13867;BME280;7003;46.982;15.248;2023-04-30T05:11:39;97342.69;;;8.42;100.00
13867;BME280;7003;46.982;15.248;2023-04-30T05:14:11;97341.19;;;8.67;100.00
13867;BME280;7003;46.982;15.248;2023-04-30T05:16:40;97347.56;;;8.58;100.00
13867;BME280;7003;46.982;15.248;2023-04-30T05:19:11;97351.63;;;8.55;100.00
13867;BME280;7003;46.982;15.248;2023-04-30T05:21:43;97340.66;;;8.48;100.00
13867;BME280;7003;46.982;15.248;2023-04-30T05:24:13;97346.28;;;8.46;100.00
13867;BME280;7003;46.982;15.248;2023-04-30T05:26:45;97353.50;;;8.63;100.00
13867;BME280;7003;46.982;15.248;2023-04-30T05:29:18;97342.31;;;8.66;100.00
13867;BME280;7003;46.982;15.248;2023-04-30T05:31:48;97347.91;;;8.65;100.00
13867;BME280;7003;46.982;15.248;2023-04-30T05:34:18;97345.59;;;8.72;100.00
13867;BME280;7003;46.982;15.248;2023-04-30T05:36:48;97352.34;;;8.86;100.00
13867;BME280;7003;46.982;15.248;2023-04-30T05:39:20;97356.25;;;8.89;100.00
13867;BME280;7003;46.982;15.248;2023-04-30T05:41:50;97360.50;;;9.07;100.00
13867;BME280;7003;46.982;15.248;2023-04-30T05:44:19;97358.81;;;9.11;100.00
13867;BME280;7003;46.982;15.248;2023-04-30T05:46:47;97365.06;;;9.24;100.00
13867;BME280;7003;46.982;15.248;2023-04-30T05:49:15;97370.22;;;9.29;100.00
13867;BME280;7003;46.982;15.248;2023-04-30T05:51:47;97367.91;;;9.36;100.00
13867;BME280;7003;46.982;15.248;2023-04-30T05:54:16;97370.69;;;9.31;100.00
13867;BME280;7003;46.982;15.248;2023-04-30T05:56:44;97366.00;;;9.19;100.00
13867;BME280;7003;46.982;15.248;2023-04-30T05:59:12;97364.59;;;9.31;100.00
13867;BME280;7003;46.982;15.248;2023-04-30T06:01:41;97366.16;;;9.40;100.00
13867;BME280;7003;46.982;15.248;2023-04-30T06:04:12;97363.22;;;9.59;100.00
13867;BME280;7003;46.982;15.248;2023-04-30T06:06:40;97360.09;;;9.65;100.00
13867;BME280;7003;46.982;15.248;2023-04-30T06:09:10;97359.59;;;9.98;100.00
13867;BME280;7003;46.982;15.248;2023-04-30T06:11:38;97358.72;;;10.40;100.00
13867;BME280;7003;46.982;15.248;2023-04-30T06:14:07;97372.25;;;10.65;100.00
13867;BME280;7003;46.982;15.248;2023-04-30T06:16:37;97368.41;;;11.12;100.00
13867;BME280;7003;46.982;15.248;2023-04-30T06:19:06;97372.47;;;11.60;100.00
13867;BME280;7003;46.982;15.248;2023-04-30T06:21:37;97368.50;;;12.20;100.00
13867;BME280;7003;46.982;15.248;2023-04-30T06:24:05;97368.81;;;12.51;100.00
13867;BME280;7003;46.982;15.248;2023-04-30T06:26:37;97368.94;;;12.67;100.00
13867;BME280;7003;46.982;15.248;2023-04-30T06:29:05;97367.38;;;12.78;100.00
13867;BME280;7003;46.982;15.248;2023-04-30T06:31:33;97373.50;;;12.91;100.00
13867;BME280;7003;46.982;15.248;2023-04-30T06:34:02;97372.94;;;12.97;100.00
13867;BME280;7003;46.982;15.248;2023-04-30T06:36:30;97373.28;;;13.08;100.00
13867;BME280;7003;46.982;15.248;2023-04-30T06:38:58;97369.03;;;13.43;100.00
13867;BME280;7003;46.982;15.248;2023-04-30T06:41:29;97375.88;;;13.97;100.00
13867;BME280;7003;46.982;15.248;2023-04-30T06:43:58;97385.16;;;13.87;100.00
13867;BME280;7003;46.982;15.248;2023-04-30T06:46:27;97389.94;;;14.09;100.00
13867;BME280;7003;46.982;15.248;2023-04-30T06:48:55;97389.31;;;14.28;100.00
13867;BME280;7003;46.982;15.248;2023-04-30T06:51:26;97402.53;;;14.37;100.00
13867;BME280;7003;46.982;15.248;2023-04-30T06:53:54;97400.63;;;14.65;100.00
13867;BME280;7003;46.982;15.248;2023-04-30T06:56:23;97390.78;;;14.69;100.00
13867;BME280;7003;46.982;15.248;2023-04-30T06:58:51;97394.78;;;14.32;100.00
13867;BME280;7003;46.982;15.248;2023-04-30T07:01:21;97392.66;;;14.25;100.00
13867;BME280;7003;46.982;15.248;2023-04-30T07:03:51;97389.91;;;14.21;100.00
13867;BME280;7003;46.982;15.248;2023-04-30T07:06:22;97384.03;;;13.88;100.00
13867;BME280;7003;46.982;15.248;2023-04-30T07:08:50;97383.56;;;14.42;100.00
13867;BME280;7003;46.982;15.248;2023-04-30T07:11:19;97383.50;;;14.38;100.00
13867;BME280;7003;46.982;15.248;2023-04-30T07:13:47;97378.66;;;14.44;100.00
13867;BME280;7003;46.982;15.248;2023-04-30T07:16:15;97379.72;;;14.71;100.00
13867;BME280;7003;46.982;15.248;2023-04-30T07:18:44;97380.47;;;15.02;100.00
13867;BME280;7003;46.982;15.248;2023-04-30T07:21:16;97373.81;;;14.96;100.00
13867;BME280;7003;46.982;15.248;2023-04-30T07:23:47;97376.50;;;14.96;100.00
13867;BME280;7003;46.982;15.248;2023-04-30T07:26:19;97379.72;;;14.86;100.00
13867;BME280;7003;46.982;15.248;2023-04-30T07:28:52;97383.25;;;14.59;100.00
13867;BME280;7003;46.982;15.248;2023-04-30T07:31:22;97376.84;;;14.95;100.00
13867;BME280;7003;46.982;15.248;2023-04-30T07:33:53;97386.22;;;14.70;100.00
13867;BME280;7003;46.982;15.248;2023-04-30T07:36:21;97384.88;;;15.11;100.00
13867;BME280;7003;46.982;15.248;2023-04-30T07:38:49;97387.19;;;15.12;100.00
13867;BME280;7003;46.982;15.248;2023-04-30T07:41:20;97400.63;;;15.63;100.00
13867;BME280;7003;46.982;15.248;2023-04-30T07:43:50;97390.66;;;15.13;100.00
13867;BME280;7003;46.982;15.248;2023-04-30T07:46:18;97393.78;;;15.15;100.00
13867;BME280;7003;46.982;15.248;2023-04-30T07:48:50;97397.13;;;15.27;100.00
13867;BME280;7003;46.982;15.248;2023-04-30T07:51:24;97397.84;;;15.09;100.00
13867;BME280;7003;46.982;15.248;2023-04-30T07:53:56;97404.69;;;14.75;100.00
13867;BME280;7003;46.982;15.248;2023-04-30T07:56:26;97406.09;;;14.41;100.00
13867;BME280;7003;46.982;15.248;2023-04-30T07:58:54;97395.69;;;14.83;100.00
13867;BME280;7003;46.982;15.248;2023-04-30T08:01:23;97411.09;;;14.70;100.00
13867;BME280;7003;46.982;15.248;2023-04-30T08:03:51;97399.66;;;14.73;100.00
13867;BME280;7003;46.982;15.248;2023-04-30T08:06:19;97403.28;;;15.12;100.00
13867;BME280;7003;46.982;15.248;2023-04-30T08:08:49;97402.78;;;14.91;100.00
13867;BME280;7003;46.982;15.248;2023-04-30T08:11:17;97401.09;;;15.18;100.00
13867;BME280;7003;46.982;15.248;2023-04-30T08:13:46;97403.50;;;15.54;100.00
13867;BME280;7003;46.982;15.248;2023-04-30T08:16:16;97404.84;;;15.83;100.00
13867;BME280;7003;46.982;15.248;2023-04-30T08:18:44;97401.88;;;15.88;100.00
13867;BME280;7003;46.982;15.248;2023-04-30T08:21:15;97412.34;;;16.12;100.00
13867;BME280;7003;46.982;15.248;2023-04-30T08:23:44;97413.66;;;16.41;100.00
13867;BME280;7003;46.982;15.248;2023-04-30T08:26:16;97420.16;;;16.40;100.00
13867;BME280;7003;46.982;15.248;2023-04-30T08:28:44;97416.06;;;16.27;100.00
13867;BME280;7003;46.982;15.248;2023-04-30T08:31:13;97412.28;;;16.51;100.00
13867;BME280;7003;46.982;15.248;2023-04-30T08:33:43;97423.06;;;16.32;100.00
13867;BME280;7003;46.982;15.248;2023-04-30T08:36:12;97422.81;;;16.60;100.00
13867;BME280;7003;46.982;15.248;2023-04-30T08:38:42;97422.94;;;16.67;100.00
13867;BME280;7003;46.982;15.248;2023-04-30T08:41:11;97417.31;;;16.72;100.00
13867;BME280;7003;46.982;15.248;2023-04-30T08:43:42;97421.72;;;16.22;100.00
13867;BME280;7003;46.982;15.248;2023-04-30T08:46:12;97425.63;;;16.05;100.00
13867;BME280;7003;46.982;15.248;2023-04-30T08:48:40;97423.25;;;15.15;100.00
13867;BME280;7003;46.982;15.248;2023-04-30T08:51:11;97424.44;;;15.33;100.00
13867;BME280;7003;46.982;15.248;2023-04-30T08:53:41;97425.06;;;15.11;100.00
13867;BME280;7003;46.982;15.248;2023-04-30T08:56:10;97423.72;;;15.36;100.00
13867;BME280;7003;46.982;15.248;2023-04-30T08:58:41;97421.19;;;15.08;100.00
13867;BME280;7003;46.982;15.248;2023-04-30T09:01:12;97427.41;;;14.96;100.00
13867;BME280;7003;46.982;15.248;2023-04-30T09:03:43;97421.81;;;15.52;100.00
13867;BME280;7003;46.982;15.248;2023-04-30T09:06:16;97420.88;;;15.99;100.00
13867;BME280;7003;46.982;15.248;2023-04-30T09:08:46;97425.31;;;16.30;100.00
13867;BME280;7003;46.982;15.248;2023-04-30T09:11:25;97418.31;;;16.86;100.00
13867;BME280;7003;46.982;15.248;2023-04-30T09:13:56;97424.16;;;17.41;100.00
13867;BME280;7003;46.982;15.248;2023-04-30T09:16:25;97422.72;;;16.75;100.00
13867;BME280;7003;46.982;15.248;2023-04-30T09:18:58;97416.22;;;16.99;100.00
13867;BME280;7003;46.982;15.248;2023-04-30T09:21:31;97424.59;;;16.52;100.00
13867;BME280;7003;46.982;15.248;2023-04-30T09:24:00;97428.88;;;16.14;100.00
13867;BME280;7003;46.982;15.248;2023-04-30T09:26:34;97423.28;;;16.23;100.00
13867;BME280;7003;46.982;15.248;2023-04-30T09:29:04;97420.75;;;16.72;100.00
13867;BME280;7003;46.982;15.248;2023-04-30T09:31:42;97413.59;;;16.80;100.00
13867;BME280;7003;46.982;15.248;2023-04-30T09:34:15;97416.28;;;16.18;100.00
13867;BME280;7003;46.982;15.248;2023-04-30T09:37:01;97414.06;;;16.63;100.00
13867;BME280;7003;46.982;15.248;2023-04-30T09:39:48;97421.47;;;17.41;100.00
13867;BME280;7003;46.982;15.248;2023-04-30T09:42:20;97410.56;;;17.57;100.00
13867;BME280;7003;46.982;15.248;2023-04-30T09:44:52;97409.50;;;17.39;100.00
13867;BME280;7003;46.982;15.248;2023-04-30T09:47:21;97406.69;;;17.84;100.00
13867;BME280;7003;46.982;15.248;2023-04-30T09:49:49;97399.13;;;17.93;100.00
13867;BME280;7003;46.982;15.248;2023-04-30T09:52:21;97403.28;;;18.21;100.00
13867;BME280;7003;46.982;15.248;2023-04-30T09:54:49;97407.66;;;18.36;100.00
13867;BME280;7003;46.982;15.248;2023-04-30T09:57:22;97398.38;;;18.63;100.00
13867;BME280;7003;46.982;15.248;2023-04-30T09:59:52;97407.53;;;17.88;100.00
13867;BME280;7003;46.982;15.248;2023-04-30T10:02:23;97408.44;;;17.69;100.00
13867;BME280;7003;46.982;15.248;2023-04-30T10:04:55;97405.38;;;17.18;100.00
13867;BME280;7003;46.982;15.248;2023-04-30T10:07:30;97395.25;;;16.85;100.00
13867;BME280;7003;46.982;15.248;2023-04-30T10:10:03;97392.13;;;16.38;100.00
13867;BME280;7003;46.982;15.248;2023-04-30T10:12:42;97393.13;;;16.52;100.00
13867;BME280;7003;46.982;15.248;2023-04-30T10:15:15;97385.19;;;16.60;100.00
13867;BME280;7003;46.982;15.248;2023-04-30T10:17:50;97384.16;;;16.87;100.00
13867;BME280;7003;46.982;15.248;2023-04-30T10:20:21;97374.41;;;17.28;100.00
13867;BME280;7003;46.982;15.248;2023-04-30T10:22:50;97374.97;;;18.00;100.00
13867;BME280;7003;46.982;15.248;2023-04-30T10:25:19;97365.66;;;18.28;100.00
13867;BME280;7003;46.982;15.248;2023-04-30T10:27:48;97373.50;;;18.06;100.00
13867;BME280;7003;46.982;15.248;2023-04-30T10:30:20;97370.41;;;17.71;100.00
13867;BME280;7003;46.982;15.248;2023-04-30T10:32:58;97368.94;;;18.11;100.00
13867;BME280;7003;46.982;15.248;2023-04-30T10:35:39;97370.59;;;18.19;100.00
13867;BME280;7003;46.982;15.248;2023-04-30T10:38:16;97357.47;;;18.17;100.00
13867;BME280;7003;46.982;15.248;2023-04-30T10:40:45;97360.31;;;18.31;100.00
13867;BME280;7003;46.982;15.248;2023-04-30T10:43:17;97356.03;;;18.67;100.00
13867;BME280;7003;46.982;15.248;2023-04-30T10:45:49;97349.53;;;19.23;100.00
13867;BME280;7003;46.982;15.248;2023-04-30T10:48:21;97347.19;;;19.18;100.00
13867;BME280;7003;46.982;15.248;2023-04-30T10:50:55;97347.44;;;18.99;97.57
13867;BME280;7003;46.982;15.248;2023-04-30T10:53:29;97346.88;;;19.27;100.00
13867;BME280;7003;46.982;15.248;2023-04-30T10:56:01;97339.50;;;19.20;92.09
13867;BME280;7003;46.982;15.248;2023-04-30T10:58:33;97345.31;;;18.71;100.00
13867;BME280;7003;46.982;15.248;2023-04-30T11:01:04;97341.84;;;19.29;100.00
13867;BME280;7003;46.982;15.248;2023-04-30T11:03:34;97340.47;;;19.52;99.36
13867;BME280;7003;46.982;15.248;2023-04-30T11:06:07;97334.94;;;19.31;91.41
13867;BME280;7003;46.982;15.248;2023-04-30T11:08:41;97337.25;;;19.33;94.75
13867;BME280;7003;46.982;15.248;2023-04-30T11:11:10;97344.91;;;19.20;79.62
13867;BME280;7003;46.982;15.248;2023-04-30T11:13:43;97341.41;;;18.65;91.81
13867;BME280;7003;46.982;15.248;2023-04-30T11:16:14;97345.78;;;18.43;100.00
13867;BME280;7003;46.982;15.248;2023-04-30T11:18:44;97345.84;;;18.46;100.00
13867;BME280;7003;46.982;15.248;2023-04-30T11:21:13;97350.44;;;17.72;100.00
13867;BME280;7003;46.982;15.248;2023-04-30T11:23:42;97356.09;;;17.37;100.00
13867;BME280;7003;46.982;15.248;2023-04-30T11:26:13;97353.84;;;17.43;100.00
13867;BME280;7003;46.982;15.248;2023-04-30T11:28:50;97346.19;;;17.41;100.00
13867;BME280;7003;46.982;15.248;2023-04-30T11:31:21;97347.28;;;17.10;100.00
13867;BME280;7003;46.982;15.248;2023-04-30T11:33:49;97347.38;;;17.17;100.00
13867;BME280;7003;46.982;15.248;2023-04-30T11:36:18;97350.53;;;17.53;100.00
13867;BME280;7003;46.982;15.248;2023-04-30T11:38:46;97348.47;;;18.02;100.00
13867;BME280;7003;46.982;15.248;2023-04-30T11:41:15;97338.50;;;18.43;100.00
13867;BME280;7003;46.982;15.248;2023-04-30T11:43:45;97339.56;;;18.72;94.09
13867;BME280;7003;46.982;15.248;2023-04-30T11:46:15;97336.09;;;17.94;88.99
13867;BME280;7003;46.982;15.248;2023-04-30T11:48:46;97330.25;;;17.89;90.54
13867;BME280;7003;46.982;15.248;2023-04-30T11:51:15;97342.69;;;17.67;100.00
13867;BME280;7003;46.982;15.248;2023-04-30T11:53:47;97340.66;;;17.30;94.32
13867;BME280;7003;46.982;15.248;2023-04-30T11:56:18;97346.28;;;17.22;86.62
13867;BME280;7003;46.982;15.248;2023-04-30T11:58:47;97334.56;;;17.34;94.33
13867;BME280;7003;46.982;15.248;2023-04-30T12:01:17;97336.31;;;18.16;92.39
13867;BME280;7003;46.982;15.248;2023-04-30T12:03:54;97331.28;;;17.77;85.99
13867;BME280;7003;46.982;15.248;2023-04-30T12:06:27;97340.91;;;18.12;93.52
13867;BME280;7003;46.982;15.248;2023-04-30T12:08:56;97335.91;;;18.14;80.47
13867;BME280;7003;46.982;15.248;2023-04-30T12:11:27;97337.28;;;17.67;80.95
13867;BME280;7003;46.982;15.248;2023-04-30T12:13:56;97346.78;;;17.57;85.62
13867;BME280;7003;46.982;15.248;2023-04-30T12:16:27;97337.22;;;17.93;81.08
13867;BME280;7003;46.982;15.248;2023-04-30T12:18:59;97329.81;;;17.83;76.24
13867;BME280;7003;46.982;15.248;2023-04-30T12:21:29;97335.81;;;17.73;89.23
13867;BME280;7003;46.982;15.248;2023-04-30T12:23:58;97334.00;;;17.51;83.26
13867;BME280;7003;46.982;15.248;2023-04-30T12:26:33;97338.44;;;17.66;79.22
13867;BME280;7003;46.982;15.248;2023-04-30T12:29:03;97335.06;;;17.73;77.43
13867;BME280;7003;46.982;15.248;2023-04-30T12:31:32;97333.22;;;17.50;85.42
13867;BME280;7003;46.982;15.248;2023-04-30T12:34:08;97328.63;;;17.51;79.31
13867;BME280;7003;46.982;15.248;2023-04-30T12:36:38;97329.75;;;17.20;86.06
13867;BME280;7003;46.982;15.248;2023-04-30T12:39:12;97329.28;;;16.88;83.28
13867;BME280;7003;46.982;15.248;2023-04-30T12:41:42;97324.63;;;16.85;83.17
13867;BME280;7003;46.982;15.248;2023-04-30T12:44:18;97321.84;;;16.55;90.12
13867;BME280;7003;46.982;15.248;2023-04-30T12:46:50;97325.59;;;16.73;86.61
13867;BME280;7003;46.982;15.248;2023-04-30T12:49:24;97325.81;;;17.14;83.74
13867;BME280;7003;46.982;15.248;2023-04-30T12:51:58;97320.72;;;17.35;78.80
13867;BME280;7003;46.982;15.248;2023-04-30T12:54:28;97308.19;;;17.76;79.79
13867;BME280;7003;46.982;15.248;2023-04-30T12:56:58;97310.09;;;18.09;79.84
13867;BME280;7003;46.982;15.248;2023-04-30T12:59:31;97300.81;;;18.95;73.87
13867;BME280;7003;46.982;15.248;2023-04-30T13:02:07;97310.41;;;19.50;68.36
13867;BME280;7003;46.982;15.248;2023-04-30T13:04:37;97297.88;;;19.21;65.60
13867;BME280;7003;46.982;15.248;2023-04-30T13:07:05;97300.63;;;19.25;68.26
13867;BME280;7003;46.982;15.248;2023-04-30T13:09:37;97298.00;;;19.46;63.77
13867;BME280;7003;46.982;15.248;2023-04-30T13:12:05;97287.09;;;19.21;62.38